sensor_id;sensor_type;location;lat;lon;timestamp;temperature;humidity
19892;DHT22;10108;50.142;8.724;2023-04-09T00:01:55;8.90;99.90
19892;DHT22;10108;50.142;8.724;2023-04-09T00:04:21;8.90;99.90
19892;DHT22;10108;50.142;8.724;2023-04-09T00:06:48;8.90;99.90
19892;DHT22;10108;50.142;8.724;2023-04-09T00:09:14;8.90;99.90
19892;DHT22;10108;50.142;8.724;2023-04-09T00:11:41;8.90;99.90
19892;DHT22;10108;50.142;8.724;2023-04-09T00:14:07;8.90;99.90
19892;DHT22;10108;50.142;8.724;2023-04-09T00:16:33;8.90;99.90
19892;DHT22;10108;50.142;8.724;2023-04-09T00:18:59;8.90;99.90
19892;DHT22;10108;50.142;8.724;2023-04-09T00:21:25;8.90;99.90
19892;DHT22;10108;50.142;8.724;2023-04-09T00:23:52;8.90;99.90
19892;DHT22;10108;50.142;8.724;2023-04-09T00:26:18;8.90;99.90
19892;DHT22;10108;50.142;8.724;2023-04-09T00:28:44;8.90;99.90
19892;DHT22;10108;50.142;8.724;2023-04-09T00:31:11;8.90;99.90
19892;DHT22;10108;50.142;8.724;2023-04-09T00:33:37;8.90;99.90
19892;DHT22;10108;50.142;8.724;2023-04-09T00:36:03;8.90;99.90
19892;DHT22;10108;50.142;8.724;2023-04-09T00:38:29;8.80;99.90
19892;DHT22;10108;50.142;8.724;2023-04-09T00:40:55;8.80;99.90
19892;DHT22;10108;50.142;8.724;2023-04-09T00:43:22;8.80;99.90
19892;DHT22;10108;50.142;8.724;2023-04-09T00:45:48;8.70;99.90
19892;DHT22;10108;50.142;8.724;2023-04-09T00:48:14;8.70;99.90
19892;DHT22;10108;50.142;8.724;2023-04-09T00:50:42;8.70;99.90
19892;DHT22;10108;50.142;8.724;2023-04-09T00:53:09;8.60;99.90
19892;DHT22;10108;50.142;8.724;2023-04-09T00:55:35;8.60;99.90
19892;DHT22;10108;50.142;8.724;2023-04-09T00:58:04;8.60;99.90
19892;DHT22;10108;50.142;8.724;2023-04-09T01:00:30;8.50;99.90
19892;DHT22;10108;50.142;8.724;2023-04-09T01:02:56;8.50;99.90
19892;DHT22;10108;50.142;8.724;2023-04-09T01:05:30;8.50;99.90
19892;DHT22;10108;50.142;8.724;2023-04-09T01:08:18;8.50;99.90
19892;DHT22;10108;50.142;8.724;2023-04-09T01:10:57;8.40;99.90
19892;DHT22;10108;50.142;8.724;2023-04-09T01:13:46;8.40;99.90
19892;DHT22;10108;50.142;8.724;2023-04-09T01:16:15;8.30;99.90
19892;DHT22;10108;50.142;8.724;2023-04-09T01:21:32;8.30;99.90
19892;DHT22;10108;50.142;8.724;2023-04-09T01:24:20;8.20;99.90
19892;DHT22;10108;50.142;8.724;2023-04-09T01:27:02;8.20;99.90
19892;DHT22;10108;50.142;8.724;2023-04-09T01:29:50;8.20;99.90
19892;DHT22;10108;50.142;8.724;2023-04-09T01:32:18;8.10;99.90
19892;DHT22;10108;50.142;8.724;2023-04-09T01:34:46;8.10;99.90
19892;DHT22;10108;50.142;8.724;2023-04-09T01:37:13;8.10;99.90
19892;DHT22;10108;50.142;8.724;2023-04-09T01:39:40;8.10;99.90
19892;DHT22;10108;50.142;8.724;2023-04-09T01:42:08;8.10;99.90
19892;DHT22;10108;50.142;8.724;2023-04-09T01:44:41;8.10;99.90
19892;DHT22;10108;50.142;8.724;2023-04-09T01:47:08;8.10;99.90
19892;DHT22;10108;50.142;8.724;2023-04-09T01:49:35;8.10;99.90
19892;DHT22;10108;50.142;8.724;2023-04-09T01:52:03;8.10;99.90
19892;DHT22;10108;50.142;8.724;2023-04-09T01:54:29;8.10;99.90
19892;DHT22;10108;50.142;8.724;2023-04-09T01:56:56;8.10;99.90
19892;DHT22;10108;50.142;8.724;2023-04-09T01:59:23;8.10;99.90
19892;DHT22;10108;50.142;8.724;2023-04-09T02:01:53;8.00;99.90
19892;DHT22;10108;50.142;8.724;2023-04-09T02:04:25;8.10;99.90
19892;DHT22;10108;50.142;8.724;2023-04-09T02:07:00;8.10;99.90
19892;DHT22;10108;50.142;8.724;2023-04-09T02:09:30;8.10;99.90
19892;DHT22;10108;50.142;8.724;2023-04-09T02:11:58;8.10;99.90
19892;DHT22;10108;50.142;8.724;2023-04-09T02:14:27;8.10;99.90
19892;DHT22;10108;50.142;8.724;2023-04-09T02:16:55;8.10;99.90
19892;DHT22;10108;50.142;8.724;2023-04-09T02:19:21;8.00;99.90
19892;DHT22;10108;50.142;8.724;2023-04-09T02:21:48;8.00;99.90
19892;DHT22;10108;50.142;8.724;2023-04-09T02:24:14;8.00;99.90
19892;DHT22;10108;50.142;8.724;2023-04-09T02:26:40;7.90;99.90
19892;DHT22;10108;50.142;8.724;2023-04-09T02:29:06;7.80;99.90
19892;DHT22;10108;50.142;8.724;2023-04-09T02:31:32;7.80;99.90
19892;DHT22;10108;50.142;8.724;2023-04-09T02:33:58;7.70;99.90
19892;DHT22;10108;50.142;8.724;2023-04-09T02:36:24;7.70;99.90
19892;DHT22;10108;50.142;8.724;2023-04-09T02:38:52;7.80;99.90
19892;DHT22;10108;50.142;8.724;2023-04-09T02:41:18;7.80;99.90
19892;DHT22;10108;50.142;8.724;2023-04-09T02:43:45;7.80;99.90
19892;DHT22;10108;50.142;8.724;2023-04-09T02:46:12;7.90;99.90
19892;DHT22;10108;50.142;8.724;2023-04-09T02:48:38;7.90;99.90
19892;DHT22;10108;50.142;8.724;2023-04-09T02:51:06;8.00;99.90
19892;DHT22;10108;50.142;8.724;2023-04-09T02:53:33;8.00;99.90
19892;DHT22;10108;50.142;8.724;2023-04-09T02:55:59;8.00;99.90
19892;DHT22;10108;50.142;8.724;2023-04-09T02:58:25;8.00;99.90
19892;DHT22;10108;50.142;8.724;2023-04-09T03:00:51;8.00;99.90
19892;DHT22;10108;50.142;8.724;2023-04-09T03:03:17;8.10;99.90
19892;DHT22;10108;50.142;8.724;2023-04-09T03:05:44;8.00;99.90
19892;DHT22;10108;50.142;8.724;2023-04-09T03:08:10;8.10;99.90
19892;DHT22;10108;50.142;8.724;2023-04-09T03:10:36;8.10;99.90
19892;DHT22;10108;50.142;8.724;2023-04-09T03:13:02;8.10;99.90
19892;DHT22;10108;50.142;8.724;2023-04-09T03:15:29;8.10;99.90
19892;DHT22;10108;50.142;8.724;2023-04-09T03:17:55;8.00;99.90
19892;DHT22;10108;50.142;8.724;2023-04-09T03:20:21;8.00;99.90
19892;DHT22;10108;50.142;8.724;2023-04-09T03:22:47;8.10;99.90
19892;DHT22;10108;50.142;8.724;2023-04-09T03:25:24;8.00;99.90
19892;DHT22;10108;50.142;8.724;2023-04-09T03:27:53;8.10;99.90
19892;DHT22;10108;50.142;8.724;2023-04-09T03:30:29;8.10;99.90
19892;DHT22;10108;50.142;8.724;2023-04-09T03:32:56;8.00;99.90
19892;DHT22;10108;50.142;8.724;2023-04-09T03:35:24;8.00;99.90
19892;DHT22;10108;50.142;8.724;2023-04-09T03:37:56;8.00;99.90
19892;DHT22;10108;50.142;8.724;2023-04-09T03:40:22;8.00;99.90
19892;DHT22;10108;50.142;8.724;2023-04-09T03:42:48;8.00;99.90
19892;DHT22;10108;50.142;8.724;2023-04-09T03:45:16;8.00;99.90
19892;DHT22;10108;50.142;8.724;2023-04-09T03:47:45;8.00;99.90
19892;DHT22;10108;50.142;8.724;2023-04-09T03:50:12;8.00;99.90
19892;DHT22;10108;50.142;8.724;2023-04-09T03:52:46;8.10;99.90
19892;DHT22;10108;50.142;8.724;2023-04-09T03:55:12;8.10;99.90
19892;DHT22;10108;50.142;8.724;2023-04-09T03:57:38;8.00;99.90
19892;DHT22;10108;50.142;8.724;2023-04-09T04:00:08;8.00;99.90
19892;DHT22;10108;50.142;8.724;2023-04-09T04:02:50;8.00;99.90
19892;DHT22;10108;50.142;8.724;2023-04-09T04:05:22;8.00;99.90
19892;DHT22;10108;50.142;8.724;2023-04-09T04:07:51;8.00;99.90
19892;DHT22;10108;50.142;8.724;2023-04-09T04:10:24;8.00;99.90
19892;DHT22;10108;50.142;8.724;2023-04-09T04:12:50;8.00;99.90
19892;DHT22;10108;50.142;8.724;2023-04-09T04:15:38;8.00;99.90
19892;DHT22;10108;50.142;8.724;2023-04-09T04:18:05;7.90;99.90
19892;DHT22;10108;50.142;8.724;2023-04-09T04:20:44;7.90;99.90
19892;DHT22;10108;50.142;8.724;2023-04-09T04:23:13;7.90;99.90
19892;DHT22;10108;50.142;8.724;2023-04-09T04:25:50;7.90;99.90
19892;DHT22;10108;50.142;8.724;2023-04-09T04:28:24;7.90;99.90
19892;DHT22;10108;50.142;8.724;2023-04-09T04:30:50;8.00;99.90
19892;DHT22;10108;50.142;8.724;2023-04-09T04:33:17;7.90;99.90
19892;DHT22;10108;50.142;8.724;2023-04-09T04:35:49;7.90;99.90
19892;DHT22;10108;50.142;8.724;2023-04-09T04:38:36;7.90;99.90
19892;DHT22;10108;50.142;8.724;2023-04-09T04:41:06;7.80;99.90
19892;DHT22;10108;50.142;8.724;2023-04-09T04:43:36;7.80;99.90
19892;DHT22;10108;50.142;8.724;2023-04-09T04:46:03;7.80;99.90
19892;DHT22;10108;50.142;8.724;2023-04-09T04:48:30;7.80;99.90
19892;DHT22;10108;50.142;8.724;2023-04-09T04:50:59;7.80;99.90
19892;DHT22;10108;50.142;8.724;2023-04-09T04:53:31;7.80;99.90
19892;DHT22;10108;50.142;8.724;2023-04-09T04:56:02;7.90;99.90
19892;DHT22;10108;50.142;8.724;2023-04-09T04:58:28;7.80;99.90
19892;DHT22;10108;50.142;8.724;2023-04-09T05:00:57;7.90;99.90
19892;DHT22;10108;50.142;8.724;2023-04-09T05:03:25;7.90;99.90
19892;DHT22;10108;50.142;8.724;2023-04-09T05:05:58;7.90;99.90
19892;DHT22;10108;50.142;8.724;2023-04-09T05:08:28;7.90;99.90
19892;DHT22;10108;50.142;8.724;2023-04-09T05:10:56;7.90;99.90
19892;DHT22;10108;50.142;8.724;2023-04-09T05:13:28;8.00;99.90
19892;DHT22;10108;50.142;8.724;2023-04-09T05:15:55;7.90;99.90
19892;DHT22;10108;50.142;8.724;2023-04-09T05:18:21;7.90;99.90
19892;DHT22;10108;50.142;8.724;2023-04-09T05:20:47;7.90;99.90
19892;DHT22;10108;50.142;8.724;2023-04-09T05:23:13;8.00;99.90
19892;DHT22;10108;50.142;8.724;2023-04-09T05:25:42;8.00;99.90
19892;DHT22;10108;50.142;8.724;2023-04-09T05:28:16;8.00;99.90
19892;DHT22;10108;50.142;8.724;2023-04-09T05:30:46;8.00;99.90
19892;DHT22;10108;50.142;8.724;2023-04-09T05:33:13;8.10;99.90
19892;DHT22;10108;50.142;8.724;2023-04-09T05:35:40;8.10;99.90
19892;DHT22;10108;50.142;8.724;2023-04-09T05:38:06;8.10;99.90
19892;DHT22;10108;50.142;8.724;2023-04-09T05:40:32;8.10;99.90
19892;DHT22;10108;50.142;8.724;2023-04-09T05:43:01;8.20;99.90
19892;DHT22;10108;50.142;8.724;2023-04-09T05:45:37;8.20;99.90
19892;DHT22;10108;50.142;8.724;2023-04-09T05:48:03;8.20;99.90
19892;DHT22;10108;50.142;8.724;2023-04-09T05:50:29;8.30;99.90
19892;DHT22;10108;50.142;8.724;2023-04-09T05:52:55;8.30;99.90
19892;DHT22;10108;50.142;8.724;2023-04-09T05:55:30;8.40;99.90
19892;DHT22;10108;50.142;8.724;2023-04-09T05:57:59;8.40;99.90
19892;DHT22;10108;50.142;8.724;2023-04-09T06:00:25;8.40;99.90
19892;DHT22;10108;50.142;8.724;2023-04-09T06:02:52;8.40;99.90
19892;DHT22;10108;50.142;8.724;2023-04-09T06:05:18;8.50;99.90
19892;DHT22;10108;50.142;8.724;2023-04-09T06:07:46;8.50;99.90
19892;DHT22;10108;50.142;8.724;2023-04-09T06:10:13;8.50;99.90
19892;DHT22;10108;50.142;8.724;2023-04-09T06:12:39;8.50;99.90
19892;DHT22;10108;50.142;8.724;2023-04-09T06:15:06;8.60;99.90
19892;DHT22;10108;50.142;8.724;2023-04-09T06:17:32;8.60;99.90
19892;DHT22;10108;50.142;8.724;2023-04-09T06:19:58;8.70;99.90
19892;DHT22;10108;50.142;8.724;2023-04-09T06:22:24;8.70;99.90
19892;DHT22;10108;50.142;8.724;2023-04-09T06:24:50;8.70;99.90
19892;DHT22;10108;50.142;8.724;2023-04-09T06:27:17;8.70;99.90
19892;DHT22;10108;50.142;8.724;2023-04-09T06:29:44;8.70;99.90
19892;DHT22;10108;50.142;8.724;2023-04-09T06:32:10;8.80;99.90
19892;DHT22;10108;50.142;8.724;2023-04-09T06:34:36;8.90;99.90
19892;DHT22;10108;50.142;8.724;2023-04-09T06:37:02;8.90;99.90
19892;DHT22;10108;50.142;8.724;2023-04-09T06:39:28;9.00;99.90
19892;DHT22;10108;50.142;8.724;2023-04-09T06:41:54;9.00;99.90
19892;DHT22;10108;50.142;8.724;2023-04-09T06:44:34;9.10;99.90
19892;DHT22;10108;50.142;8.724;2023-04-09T06:47:00;9.10;99.90
19892;DHT22;10108;50.142;8.724;2023-04-09T06:49:27;9.20;99.90
19892;DHT22;10108;50.142;8.724;2023-04-09T06:51:53;9.20;99.90
19892;DHT22;10108;50.142;8.724;2023-04-09T06:54:19;9.20;99.90
19892;DHT22;10108;50.142;8.724;2023-04-09T06:56:45;9.20;99.90
19892;DHT22;10108;50.142;8.724;2023-04-09T06:59:11;9.30;99.90
19892;DHT22;10108;50.142;8.724;2023-04-09T07:01:38;9.30;99.90
19892;DHT22;10108;50.142;8.724;2023-04-09T07:04:05;9.30;99.90
19892;DHT22;10108;50.142;8.724;2023-04-09T07:06:31;9.40;99.90
19892;DHT22;10108;50.142;8.724;2023-04-09T07:08:57;9.40;99.90
19892;DHT22;10108;50.142;8.724;2023-04-09T07:11:24;9.50;99.90
19892;DHT22;10108;50.142;8.724;2023-04-09T07:13:50;9.40;99.90
19892;DHT22;10108;50.142;8.724;2023-04-09T07:16:16;9.50;99.90
19892;DHT22;10108;50.142;8.724;2023-04-09T07:18:42;9.50;99.90
19892;DHT22;10108;50.142;8.724;2023-04-09T07:21:08;9.50;99.90
19892;DHT22;10108;50.142;8.724;2023-04-09T07:23:35;9.60;99.90
19892;DHT22;10108;50.142;8.724;2023-04-09T07:26:03;9.60;99.90
19892;DHT22;10108;50.142;8.724;2023-04-09T07:28:29;9.70;99.90
19892;DHT22;10108;50.142;8.724;2023-04-09T07:30:55;9.70;99.90
19892;DHT22;10108;50.142;8.724;2023-04-09T07:33:22;9.80;99.90
19892;DHT22;10108;50.142;8.724;2023-04-09T07:35:48;9.80;99.90
19892;DHT22;10108;50.142;8.724;2023-04-09T07:38:14;9.80;99.90
19892;DHT22;10108;50.142;8.724;2023-04-09T07:40:41;9.90;99.90
19892;DHT22;10108;50.142;8.724;2023-04-09T07:43:07;9.90;99.90
19892;DHT22;10108;50.142;8.724;2023-04-09T07:45:33;9.90;99.90
19892;DHT22;10108;50.142;8.724;2023-04-09T07:47:59;9.90;99.90
19892;DHT22;10108;50.142;8.724;2023-04-09T07:50:26;10.00;99.90
19892;DHT22;10108;50.142;8.724;2023-04-09T07:52:52;10.00;99.90
19892;DHT22;10108;50.142;8.724;2023-04-09T07:55:18;10.10;99.90
19892;DHT22;10108;50.142;8.724;2023-04-09T07:57:45;10.10;99.90
19892;DHT22;10108;50.142;8.724;2023-04-09T08:00:11;10.10;99.90
19892;DHT22;10108;50.142;8.724;2023-04-09T08:02:42;10.20;99.90
19892;DHT22;10108;50.142;8.724;2023-04-09T08:05:09;10.20;99.90
19892;DHT22;10108;50.142;8.724;2023-04-09T08:07:35;10.20;99.90
19892;DHT22;10108;50.142;8.724;2023-04-09T08:10:01;10.30;99.90
19892;DHT22;10108;50.142;8.724;2023-04-09T08:12:27;10.30;99.90
19892;DHT22;10108;50.142;8.724;2023-04-09T08:14:54;10.30;99.90
19892;DHT22;10108;50.142;8.724;2023-04-09T08:17:20;10.30;99.90
19892;DHT22;10108;50.142;8.724;2023-04-09T08:19:47;10.40;99.90
19892;DHT22;10108;50.142;8.724;2023-04-09T08:22:14;10.40;99.90
19892;DHT22;10108;50.142;8.724;2023-04-09T08:24:41;10.40;99.90
19892;DHT22;10108;50.142;8.724;2023-04-09T08:27:08;10.50;99.90
19892;DHT22;10108;50.142;8.724;2023-04-09T08:29:35;10.50;99.90
19892;DHT22;10108;50.142;8.724;2023-04-09T08:32:01;10.50;99.90
19892;DHT22;10108;50.142;8.724;2023-04-09T08:34:27;10.50;99.90
19892;DHT22;10108;50.142;8.724;2023-04-09T08:36:54;10.50;99.90
19892;DHT22;10108;50.142;8.724;2023-04-09T08:39:20;10.60;99.90
19892;DHT22;10108;50.142;8.724;2023-04-09T08:41:46;10.60;99.90
19892;DHT22;10108;50.142;8.724;2023-04-09T08:44:13;10.60;99.90
19892;DHT22;10108;50.142;8.724;2023-04-09T08:46:39;10.70;99.90
19892;DHT22;10108;50.142;8.724;2023-04-09T08:49:08;10.70;99.90
19892;DHT22;10108;50.142;8.724;2023-04-09T08:51:35;10.80;99.90
19892;DHT22;10108;50.142;8.724;2023-04-09T08:54:01;10.80;99.90
19892;DHT22;10108;50.142;8.724;2023-04-09T08:56:28;10.80;99.90
19892;DHT22;10108;50.142;8.724;2023-04-09T08:58:54;10.90;99.90
19892;DHT22;10108;50.142;8.724;2023-04-09T09:01:22;10.90;99.90
19892;DHT22;10108;50.142;8.724;2023-04-09T09:04:02;10.90;99.90
19892;DHT22;10108;50.142;8.724;2023-04-09T09:06:31;11.00;99.90
19892;DHT22;10108;50.142;8.724;2023-04-09T09:09:11;11.00;99.90
19892;DHT22;10108;50.142;8.724;2023-04-09T09:11:48;11.00;99.90
19892;DHT22;10108;50.142;8.724;2023-04-09T09:14:17;11.10;99.90
19892;DHT22;10108;50.142;8.724;2023-04-09T09:17:03;11.10;99.90
19892;DHT22;10108;50.142;8.724;2023-04-09T09:19:31;11.10;99.90
19892;DHT22;10108;50.142;8.724;2023-04-09T09:22:03;11.00;99.90
19892;DHT22;10108;50.142;8.724;2023-04-09T09:24:30;11.00;99.90
19892;DHT22;10108;50.142;8.724;2023-04-09T09:26:57;11.00;99.90
19892;DHT22;10108;50.142;8.724;2023-04-09T09:29:24;11.00;99.90
19892;DHT22;10108;50.142;8.724;2023-04-09T09:31:54;11.00;99.90
19892;DHT22;10108;50.142;8.724;2023-04-09T09:34:22;11.00;99.90
19892;DHT22;10108;50.142;8.724;2023-04-09T09:36:49;11.00;99.90
19892;DHT22;10108;50.142;8.724;2023-04-09T09:39:16;11.00;99.90
19892;DHT22;10108;50.142;8.724;2023-04-09T09:41:43;11.00;99.90
19892;DHT22;10108;50.142;8.724;2023-04-09T09:44:11;11.00;99.90
19892;DHT22;10108;50.142;8.724;2023-04-09T09:46:39;11.10;99.90
19892;DHT22;10108;50.142;8.724;2023-04-09T09:49:08;11.10;99.90
19892;DHT22;10108;50.142;8.724;2023-04-09T09:51:39;11.20;99.90
19892;DHT22;10108;50.142;8.724;2023-04-09T09:54:06;11.20;99.90
19892;DHT22;10108;50.142;8.724;2023-04-09T09:56:36;11.30;99.90
19892;DHT22;10108;50.142;8.724;2023-04-09T09:59:12;11.40;99.90
19892;DHT22;10108;50.142;8.724;2023-04-09T10:01:40;11.40;99.90
19892;DHT22;10108;50.142;8.724;2023-04-09T10:04:08;11.40;99.90
19892;DHT22;10108;50.142;8.724;2023-04-09T10:06:42;11.50;99.90
19892;DHT22;10108;50.142;8.724;2023-04-09T10:09:09;11.50;99.90
19892;DHT22;10108;50.142;8.724;2023-04-09T10:11:36;11.50;99.90
19892;DHT22;10108;50.142;8.724;2023-04-09T10:14:03;11.50;99.90
19892;DHT22;10108;50.142;8.724;2023-04-09T10:16:32;11.50;99.90
19892;DHT22;10108;50.142;8.724;2023-04-09T10:19:00;11.50;99.90
19892;DHT22;10108;50.142;8.724;2023-04-09T10:21:42;11.60;99.90
19892;DHT22;10108;50.142;8.724;2023-04-09T10:24:10;11.60;99.90
19892;DHT22;10108;50.142;8.724;2023-04-09T10:26:39;11.70;99.90
19892;DHT22;10108;50.142;8.724;2023-04-09T10:29:08;11.80;99.90
19892;DHT22;10108;50.142;8.724;2023-04-09T10:32:03;11.80;99.90
19892;DHT22;10108;50.142;8.724;2023-04-09T10:34:34;11.80;99.90
19892;DHT22;10108;50.142;8.724;2023-04-09T10:37:01;11.80;99.90
19892;DHT22;10108;50.142;8.724;2023-04-09T10:39:31;11.80;99.90
19892;DHT22;10108;50.142;8.724;2023-04-09T10:41:59;11.70;99.90
19892;DHT22;10108;50.142;8.724;2023-04-09T10:44:27;11.70;99.90
19892;DHT22;10108;50.142;8.724;2023-04-09T10:46:57;11.80;99.90
19892;DHT22;10108;50.142;8.724;2023-04-09T10:49:25;11.80;99.90
19892;DHT22;10108;50.142;8.724;2023-04-09T10:57:09;11.90;99.90
19892;DHT22;10108;50.142;8.724;2023-04-09T10:59:37;11.90;99.90
19892;DHT22;10108;50.142;8.724;2023-04-09T11:02:08;11.90;99.90
19892;DHT22;10108;50.142;8.724;2023-04-09T11:04:53;11.80;99.90
19892;DHT22;10108;50.142;8.724;2023-04-09T11:07:25;11.90;99.90
19892;DHT22;10108;50.142;8.724;2023-04-09T11:09:52;11.90;99.90
19892;DHT22;10108;50.142;8.724;2023-04-09T11:12:18;11.90;99.90
19892;DHT22;10108;50.142;8.724;2023-04-09T11:14:44;11.90;99.90
19892;DHT22;10108;50.142;8.724;2023-04-09T11:17:11;11.90;99.90
19892;DHT22;10108;50.142;8.724;2023-04-09T11:19:38;12.00;99.90
19892;DHT22;10108;50.142;8.724;2023-04-09T11:22:04;12.00;99.90
19892;DHT22;10108;50.142;8.724;2023-04-09T11:24:40;12.10;99.90
19892;DHT22;10108;50.142;8.724;2023-04-09T11:27:07;12.20;99.90
19892;DHT22;10108;50.142;8.724;2023-04-09T11:29:34;12.30;99.90
19892;DHT22;10108;50.142;8.724;2023-04-09T11:32:01;12.30;99.90
19892;DHT22;10108;50.142;8.724;2023-04-09T11:34:27;12.40;99.90
19892;DHT22;10108;50.142;8.724;2023-04-09T11:36:54;12.30;99.90
19892;DHT22;10108;50.142;8.724;2023-04-09T11:39:20;12.30;99.90
19892;DHT22;10108;50.142;8.724;2023-04-09T11:41:46;12.40;99.90
19892;DHT22;10108;50.142;8.724;2023-04-09T11:44:13;12.40;99.90
19892;DHT22;10108;50.142;8.724;2023-04-09T11:46:40;12.40;99.90
19892;DHT22;10108;50.142;8.724;2023-04-09T11:49:06;12.50;99.90
19892;DHT22;10108;50.142;8.724;2023-04-09T11:51:33;12.50;99.90
19892;DHT22;10108;50.142;8.724;2023-04-09T11:54:07;12.60;99.90
19892;DHT22;10108;50.142;8.724;2023-04-09T11:56:34;12.70;99.90
19892;DHT22;10108;50.142;8.724;2023-04-09T11:59:01;12.70;99.90
19892;DHT22;10108;50.142;8.724;2023-04-09T12:01:32;12.70;99.90
19892;DHT22;10108;50.142;8.724;2023-04-09T12:03:59;12.60;99.90
19892;DHT22;10108;50.142;8.724;2023-04-09T12:06:26;12.70;99.90
19892;DHT22;10108;50.142;8.724;2023-04-09T12:08:56;12.70;99.90
19892;DHT22;10108;50.142;8.724;2023-04-09T12:11:30;12.60;99.90
19892;DHT22;10108;50.142;8.724;2023-04-09T12:14:00;12.60;99.90
19892;DHT22;10108;50.142;8.724;2023-04-09T12:16:34;12.60;99.90
19892;DHT22;10108;50.142;8.724;2023-04-09T12:19:05;12.60;99.90
19892;DHT22;10108;50.142;8.724;2023-04-09T12:21:48;12.60;99.90
19892;DHT22;10108;50.142;8.724;2023-04-09T12:24:15;12.70;99.90
19892;DHT22;10108;50.142;8.724;2023-04-09T12:26:43;12.80;99.90
19892;DHT22;10108;50.142;8.724;2023-04-09T12:29:09;12.80;99.90
19892;DHT22;10108;50.142;8.724;2023-04-09T12:31:36;12.80;99.90
19892;DHT22;10108;50.142;8.724;2023-04-09T12:34:02;12.80;99.90
19892;DHT22;10108;50.142;8.724;2023-04-09T12:36:28;12.80;99.90
19892;DHT22;10108;50.142;8.724;2023-04-09T12:38:54;12.80;99.90
19892;DHT22;10108;50.142;8.724;2023-04-09T12:41:21;12.80;99.90
19892;DHT22;10108;50.142;8.724;2023-04-09T12:43:47;12.80;99.90
19892;DHT22;10108;50.142;8.724;2023-04-09T12:46:14;12.70;99.90
19892;DHT22;10108;50.142;8.724;2023-04-09T12:48:40;12.70;99.90
19892;DHT22;10108;50.142;8.724;2023-04-09T12:51:06;12.70;99.90
19892;DHT22;10108;50.142;8.724;2023-04-09T12:53:33;12.70;99.90
19892;DHT22;10108;50.142;8.724;2023-04-09T12:56:00;12.70;99.90
19892;DHT22;10108;50.142;8.724;2023-04-09T12:58:26;12.70;99.90
19892;DHT22;10108;50.142;8.724;2023-04-09T13:00:52;12.70;99.90
19892;DHT22;10108;50.142;8.724;2023-04-09T13:03:19;12.60;99.90
19892;DHT22;10108;50.142;8.724;2023-04-09T13:05:46;12.60;99.90
19892;DHT22;10108;50.142;8.724;2023-04-09T13:08:12;12.60;99.90
19892;DHT22;10108;50.142;8.724;2023-04-09T13:10:38;12.70;99.90
19892;DHT22;10108;50.142;8.724;2023-04-09T13:13:05;12.80;99.90
19892;DHT22;10108;50.142;8.724;2023-04-09T13:15:37;12.80;99.90
19892;DHT22;10108;50.142;8.724;2023-04-09T13:18:03;12.90;99.90
19892;DHT22;10108;50.142;8.724;2023-04-09T13:20:30;13.00;99.90
19892;DHT22;10108;50.142;8.724;2023-04-09T13:22:56;13.00;99.90
19892;DHT22;10108;50.142;8.724;2023-04-09T13:25:22;13.00;99.90
19892;DHT22;10108;50.142;8.724;2023-04-09T13:27:48;12.90;99.90
19892;DHT22;10108;50.142;8.724;2023-04-09T13:30:14;12.90;99.90
19892;DHT22;10108;50.142;8.724;2023-04-09T13:32:41;12.90;99.90
19892;DHT22;10108;50.142;8.724;2023-04-09T13:35:07;12.90;99.90
19892;DHT22;10108;50.142;8.724;2023-04-09T13:37:35;12.90;99.90
19892;DHT22;10108;50.142;8.724;2023-04-09T13:40:01;12.80;99.90
19892;DHT22;10108;50.142;8.724;2023-04-09T13:42:27;12.90;99.90
19892;DHT22;10108;50.142;8.724;2023-04-09T13:44:53;12.90;99.90
19892;DHT22;10108;50.142;8.724;2023-04-09T13:47:20;12.90;99.90
19892;DHT22;10108;50.142;8.724;2023-04-09T13:49:46;12.90;99.90
19892;DHT22;10108;50.142;8.724;2023-04-09T13:52:13;12.90;99.90
19892;DHT22;10108;50.142;8.724;2023-04-09T13:54:39;12.90;99.90
19892;DHT22;10108;50.142;8.724;2023-04-09T13:57:05;13.00;99.90
19892;DHT22;10108;50.142;8.724;2023-04-09T13:59:31;13.00;99.90
19892;DHT22;10108;50.142;8.724;2023-04-09T14:01:58;13.00;99.90
19892;DHT22;10108;50.142;8.724;2023-04-09T14:04:24;13.00;99.90
19892;DHT22;10108;50.142;8.724;2023-04-09T14:06:50;12.90;99.90
19892;DHT22;10108;50.142;8.724;2023-04-09T14:09:16;12.90;99.90
19892;DHT22;10108;50.142;8.724;2023-04-09T14:11:42;13.00;99.90
19892;DHT22;10108;50.142;8.724;2023-04-09T14:14:08;13.00;99.90
19892;DHT22;10108;50.142;8.724;2023-04-09T14:16:35;12.90;99.90
19892;DHT22;10108;50.142;8.724;2023-04-09T14:19:01;12.90;99.90
19892;DHT22;10108;50.142;8.724;2023-04-09T14:21:28;12.80;99.90
19892;DHT22;10108;50.142;8.724;2023-04-09T14:23:54;12.80;99.90
19892;DHT22;10108;50.142;8.724;2023-04-09T14:26:20;12.80;99.90
19892;DHT22;10108;50.142;8.724;2023-04-09T14:28:48;12.70;99.90
19892;DHT22;10108;50.142;8.724;2023-04-09T14:31:14;12.70;99.90
19892;DHT22;10108;50.142;8.724;2023-04-09T14:33:45;12.70;99.90
19892;DHT22;10108;50.142;8.724;2023-04-09T14:36:11;12.80;99.90
19892;DHT22;10108;50.142;8.724;2023-04-09T14:38:37;12.80;99.90
19892;DHT22;10108;50.142;8.724;2023-04-09T14:41:04;12.80;99.90
19892;DHT22;10108;50.142;8.724;2023-04-09T14:43:30;12.80;99.90
19892;DHT22;10108;50.142;8.724;2023-04-09T14:45:56;12.90;99.90
19892;DHT22;10108;50.142;8.724;2023-04-09T14:48:22;13.00;99.90
19892;DHT22;10108;50.142;8.724;2023-04-09T14:50:48;13.00;99.90
19892;DHT22;10108;50.142;8.724;2023-04-09T14:53:16;13.00;99.90
19892;DHT22;10108;50.142;8.724;2023-04-09T14:55:43;13.10;99.90
19892;DHT22;10108;50.142;8.724;2023-04-09T14:58:09;13.10;99.90
19892;DHT22;10108;50.142;8.724;2023-04-09T15:00:35;13.10;99.90
19892;DHT22;10108;50.142;8.724;2023-04-09T15:03:01;13.10;99.90
19892;DHT22;10108;50.142;8.724;2023-04-09T15:05:28;13.20;99.90
19892;DHT22;10108;50.142;8.724;2023-04-09T15:07:56;13.20;99.90
19892;DHT22;10108;50.142;8.724;2023-04-09T15:10:22;13.20;99.40
19892;DHT22;10108;50.142;8.724;2023-04-09T15:12:48;13.30;99.90
19892;DHT22;10108;50.142;8.724;2023-04-09T15:15:15;13.40;99.90
19892;DHT22;10108;50.142;8.724;2023-04-09T15:17:41;13.40;99.90
19892;DHT22;10108;50.142;8.724;2023-04-09T15:20:07;13.40;99.40
19892;DHT22;10108;50.142;8.724;2023-04-09T15:22:33;13.30;99.20
19892;DHT22;10108;50.142;8.724;2023-04-09T15:25:00;13.20;99.20
19892;DHT22;10108;50.142;8.724;2023-04-09T15:27:26;13.10;98.80
19892;DHT22;10108;50.142;8.724;2023-04-09T15:29:52;13.00;98.70
19892;DHT22;10108;50.142;8.724;2023-04-09T15:32:20;12.90;98.60
19892;DHT22;10108;50.142;8.724;2023-04-09T15:34:46;12.80;98.70
19892;DHT22;10108;50.142;8.724;2023-04-09T15:37:12;12.80;99.00
19892;DHT22;10108;50.142;8.724;2023-04-09T15:39:38;12.70;99.10
19892;DHT22;10108;50.142;8.724;2023-04-09T15:42:04;12.70;99.10
19892;DHT22;10108;50.142;8.724;2023-04-09T15:44:31;12.60;99.20
19892;DHT22;10108;50.142;8.724;2023-04-09T15:46:57;12.60;98.40
19892;DHT22;10108;50.142;8.724;2023-04-09T15:49:23;12.60;98.20
19892;DHT22;10108;50.142;8.724;2023-04-09T15:51:49;12.50;98.40